createdAt,value
2022-12-04T00:00:46.554Z,1.75
2022-12-04T00:01:48.846Z,1.80
2022-12-04T00:02:51.237Z,1.75
2022-12-04T00:03:56.082Z,1.81
2022-12-04T00:04:58.302Z,1.70
2022-12-04T00:19:41.641Z,1.64
2022-12-04T00:20:43.866Z,1.71
2022-12-04T00:21:46.086Z,1.70
2022-12-04T00:22:48.342Z,1.73
2022-12-04T00:23:51.206Z,1.68
2022-12-04T00:24:53.444Z,1.74
2022-12-04T00:26:07.533Z,1.73
2022-12-04T00:27:09.733Z,1.66
2022-12-04T00:28:11.954Z,1.66
2022-12-04T00:29:14.260Z,1.67
2022-12-04T00:30:16.507Z,1.85
2022-12-04T00:31:21.886Z,1.89
2022-12-04T00:32:24.107Z,1.78
2022-12-04T00:33:26.384Z,1.71
2022-12-04T00:34:28.572Z,1.71
2022-12-04T00:35:30.776Z,1.74
2022-12-04T00:36:33.035Z,1.82
2022-12-04T00:37:35.322Z,1.79
2022-12-04T00:38:38.661Z,1.77
2022-12-04T00:39:40.854Z,1.73
2022-12-04T00:40:49.813Z,1.70
2022-12-04T00:41:51.974Z,1.71
2022-12-04T00:42:54.235Z,1.65
2022-12-04T00:43:56.571Z,1.75
2022-12-04T00:44:58.796Z,1.80
2022-12-04T00:46:01.813Z,1.97
2022-12-04T00:47:04.148Z,1.97
2022-12-04T00:48:06.386Z,2.05
2022-12-04T00:49:08.585Z,1.86
2022-12-04T00:50:11.550Z,1.88
2022-12-04T00:51:17.224Z,1.78
2022-12-04T00:52:19.456Z,1.83
2022-12-04T00:53:22.191Z,1.85
2022-12-04T00:54:24.338Z,1.89
2022-12-04T00:55:27.185Z,1.92
2022-12-04T00:56:29.944Z,1.86
2022-12-04T00:57:32.133Z,1.92
2022-12-04T00:58:34.515Z,1.96
2022-12-04T00:59:38.017Z,1.84
2022-12-04T01:00:43.310Z,1.79
2022-12-04T01:01:45.781Z,1.73
2022-12-04T01:02:48.245Z,1.72
2022-12-04T01:03:51.427Z,1.75
2022-12-04T01:04:53.610Z,1.71
2022-12-04T01:05:55.835Z,1.77
2022-12-04T01:07:03.221Z,1.75
2022-12-04T01:08:07.666Z,1.82
2022-12-04T01:09:10.117Z,1.83
2022-12-04T01:10:12.621Z,1.74
2022-12-04T01:11:14.925Z,1.67
2022-12-04T01:12:20.701Z,1.65
2022-12-04T01:13:24.528Z,1.67
2022-12-04T01:14:26.773Z,1.68
2022-12-04T01:15:29.008Z,1.66
2022-12-04T01:16:37.753Z,1.57
2022-12-04T01:17:39.952Z,1.56
2022-12-04T01:18:42.137Z,1.58
2022-12-04T01:19:44.688Z,1.64
2022-12-04T01:20:49.561Z,1.72
2022-12-04T01:21:51.808Z,1.73
2022-12-04T01:22:54.346Z,1.57
2022-12-04T01:23:57.042Z,1.59
2022-12-04T01:24:59.328Z,1.63
2022-12-04T01:26:01.562Z,1.69
2022-12-04T01:27:03.892Z,1.70
2022-12-04T01:28:06.058Z,1.80
2022-12-04T01:29:08.417Z,1.78
2022-12-04T01:30:11.076Z,1.78
2022-12-04T01:31:16.218Z,1.77
2022-12-04T01:32:18.463Z,1.63
2022-12-04T01:33:20.658Z,1.65
2022-12-04T01:34:25.135Z,1.68
2022-12-04T01:35:27.378Z,1.64
2022-12-04T01:36:29.650Z,1.71
2022-12-04T01:37:32.297Z,1.71
2022-12-04T01:38:35.552Z,1.65
2022-12-04T01:39:38.402Z,1.73
2022-12-04T01:40:44.539Z,1.80
2022-12-04T01:41:46.771Z,1.68
2022-12-04T01:42:48.944Z,1.68
2022-12-04T01:44:11.468Z,1.60
2022-12-04T01:45:38.683Z,1.61
2022-12-04T01:46:42.272Z,1.65
2022-12-04T01:47:45.097Z,1.62
2022-12-04T01:48:52.204Z,1.63
2022-12-04T01:49:54.636Z,1.62
2022-12-04T01:51:10.461Z,1.62
2022-12-04T01:52:19.057Z,1.63
2022-12-04T01:53:21.651Z,1.72
2022-12-04T01:54:34.078Z,1.72
2022-12-04T01:55:36.730Z,1.73
2022-12-04T01:56:44.039Z,1.82
2022-12-04T01:57:46.633Z,1.74
2022-12-04T01:58:54.917Z,1.74
2022-12-04T02:01:46.424Z,1.51
2022-12-04T02:02:48.977Z,1.45
2022-12-04T02:03:51.333Z,1.50
2022-12-04T02:04:54.145Z,1.51
2022-12-04T02:05:56.403Z,1.48
2022-12-04T02:06:58.773Z,1.50
2022-12-04T02:08:05.514Z,1.64
2022-12-04T02:09:07.958Z,1.64
2022-12-04T02:10:11.647Z,1.62
2022-12-04T02:11:41.450Z,1.64
2022-12-04T02:13:13.590Z,1.65
2022-12-04T02:14:27.554Z,1.60
2022-12-04T02:15:54.542Z,1.69
2022-12-04T02:17:17.186Z,1.74
2022-12-04T02:18:44.372Z,1.87
2022-12-04T02:19:55.828Z,1.84
2022-12-04T02:21:09.754Z,1.97
2022-12-04T02:22:50.170Z,1.82
2022-12-04T02:24:18.513Z,1.74
2022-12-04T02:25:58.690Z,1.67
2022-12-04T02:27:09.007Z,1.87
2022-12-04T02:28:32.130Z,1.84
2022-12-04T02:29:44.017Z,1.83
2022-12-04T02:30:48.303Z,1.74
2022-12-04T02:32:15.162Z,1.65
2022-12-04T02:33:31.404Z,1.67
2022-12-04T02:34:45.090Z,1.68
2022-12-04T02:35:53.111Z,1.61
2022-12-04T02:37:12.723Z,1.59
2022-12-04T02:38:28.778Z,1.58
2022-12-04T02:39:33.780Z,1.70
2022-12-04T02:40:51.264Z,1.74
2022-12-04T02:41:53.407Z,1.71
2022-12-04T02:43:03.538Z,1.73
2022-12-04T02:44:38.353Z,1.62
2022-12-04T02:45:48.634Z,1.58
2022-12-04T02:46:56.054Z,1.75
2022-12-04T02:48:02.100Z,1.73
2022-12-04T02:49:14.398Z,1.73
2022-12-04T02:50:22.069Z,1.68
2022-12-04T02:51:28.001Z,1.74
2022-12-04T02:52:42.579Z,1.81
2022-12-04T02:53:50.458Z,1.94
2022-12-04T02:54:57.859Z,1.82
2022-12-04T02:56:08.869Z,1.89
2022-12-04T02:57:21.417Z,1.86
2022-12-04T02:58:50.320Z,1.89
2022-12-04T02:59:56.584Z,1.82
2022-12-04T03:01:02.646Z,1.88
2022-12-04T03:02:15.600Z,1.92
2022-12-04T03:03:22.211Z,1.89
2022-12-04T03:04:27.213Z,1.87
2022-12-04T03:05:58.078Z,1.93
2022-12-04T03:07:10.114Z,1.78
2022-12-04T03:08:17.360Z,1.83
2022-12-04T03:09:28.241Z,1.91
2022-12-04T03:10:36.249Z,1.80
2022-12-04T03:11:43.516Z,1.76
2022-12-04T03:13:10.025Z,1.74
2022-12-04T03:14:21.607Z,1.91
2022-12-04T03:15:36.942Z,1.93
2022-12-04T03:16:41.492Z,1.85
2022-12-04T03:17:58.305Z,1.88
2022-12-04T03:19:07.892Z,2.05
2022-12-04T03:20:15.117Z,1.99
2022-12-04T03:21:21.981Z,1.87
2022-12-04T03:22:25.129Z,1.86
2022-12-04T03:23:32.924Z,2.01
2022-12-04T03:24:44.758Z,1.88
2022-12-04T03:25:56.124Z,1.83
2022-12-04T03:27:10.489Z,1.84
2022-12-04T03:28:22.381Z,1.89
2022-12-04T03:29:35.642Z,1.92
2022-12-04T03:30:46.483Z,1.89
2022-12-04T03:32:33.762Z,2.06
2022-12-04T03:33:42.445Z,1.96
2022-12-04T03:34:47.528Z,1.97
2022-12-04T03:35:55.567Z,1.96
2022-12-04T03:37:04.145Z,1.85
2022-12-04T03:38:46.535Z,1.88
2022-12-04T03:40:00.572Z,1.88
2022-12-04T03:41:05.632Z,2.02
2022-12-04T03:42:19.176Z,2.01
2022-12-04T03:43:27.207Z,2.00
2022-12-04T03:44:41.285Z,2.00
2022-12-04T03:45:51.753Z,1.93
2022-12-04T03:47:07.594Z,1.95
2022-12-04T03:48:26.495Z,1.88
2022-12-04T03:49:35.418Z,1.97
2022-12-04T03:50:52.643Z,1.89
2022-12-04T03:52:07.457Z,2.02
2022-12-04T03:53:18.818Z,1.95
2022-12-04T03:54:28.897Z,1.95
2022-12-04T03:55:49.568Z,1.99
2022-12-04T03:56:56.211Z,1.96
2022-12-04T03:58:02.686Z,2.04
2022-12-04T03:59:20.842Z,1.96
2022-12-04T04:00:23.473Z,1.97
2022-12-04T04:01:32.151Z,2.00
2022-12-04T04:02:39.610Z,1.87
2022-12-04T04:03:48.532Z,1.86
2022-12-04T04:04:55.550Z,1.81
2022-12-04T04:06:03.654Z,1.82
2022-12-04T04:07:16.986Z,1.85
2022-12-04T04:08:27.408Z,1.94
2022-12-04T04:09:35.774Z,1.97
2022-12-04T04:10:37.963Z,1.96
2022-12-04T04:12:30.046Z,2.11
2022-12-04T04:13:57.953Z,2.03
2022-12-04T04:15:32.969Z,2.01
2022-12-04T04:16:57.316Z,2.02
2022-12-04T04:18:20.302Z,2.01
2022-12-04T04:19:42.330Z,1.90
2022-12-04T04:21:08.373Z,1.96
2022-12-04T04:22:29.817Z,1.97
2022-12-04T04:23:59.471Z,1.97
2022-12-04T04:25:10.005Z,2.05
2022-12-04T04:26:14.093Z,2.09
2022-12-04T04:27:16.431Z,2.11
2022-12-04T04:28:39.652Z,2.06
2022-12-04T04:29:47.950Z,2.06
2022-12-04T04:30:53.818Z,1.98
2022-12-04T04:32:09.780Z,2.11
2022-12-04T04:33:16.752Z,2.07
2022-12-04T04:34:32.799Z,2.08
2022-12-04T04:35:51.238Z,2.06
2022-12-04T04:37:10.172Z,2.07
2022-12-04T04:38:24.835Z,2.10
2022-12-04T04:39:43.325Z,1.94
2022-12-04T04:41:04.502Z,1.95
2022-12-04T04:42:22.962Z,2.20
2022-12-04T04:43:40.358Z,2.19
2022-12-04T04:44:48.382Z,2.16
2022-12-04T04:46:08.226Z,2.15
2022-12-04T04:47:17.614Z,2.15
2022-12-04T04:48:33.446Z,2.10
2022-12-04T04:49:38.389Z,2.18
2022-12-04T04:50:42.189Z,2.12
2022-12-04T04:51:45.313Z,2.10
2022-12-04T04:52:51.734Z,2.08
2022-12-04T04:53:58.135Z,1.97
2022-12-04T04:55:01.340Z,2.01
2022-12-04T04:56:06.361Z,2.09
2022-12-04T04:57:08.517Z,2.05
2022-12-04T04:58:13.481Z,2.07
2022-12-04T04:59:15.791Z,2.08
2022-12-04T05:00:21.237Z,2.11
2022-12-04T05:01:26.801Z,2.11
2022-12-04T05:02:29.058Z,2.04
2022-12-04T05:03:31.758Z,1.95
2022-12-04T05:04:33.980Z,1.95
2022-12-04T05:05:36.182Z,1.92
2022-12-04T05:06:38.383Z,1.90
2022-12-04T05:07:40.819Z,1.91
2022-12-04T05:08:44.163Z,1.95
2022-12-04T05:09:46.333Z,1.99
2022-12-04T05:10:48.606Z,1.96
2022-12-04T05:11:50.801Z,1.97
2022-12-04T05:12:53.037Z,1.96
2022-12-04T05:13:55.249Z,2.01
2022-12-04T05:14:57.468Z,2.00
2022-12-04T05:16:02.196Z,1.97
2022-12-04T05:17:10.903Z,2.03
2022-12-04T05:18:14.889Z,2.09
2022-12-04T05:19:35.886Z,2.21
2022-12-04T05:20:39.255Z,2.30
2022-12-04T05:21:41.615Z,2.39
2022-12-04T05:22:43.863Z,2.38
2022-12-04T05:23:46.114Z,2.31
2022-12-04T05:24:48.553Z,2.29
2022-12-04T05:25:50.745Z,2.30
2022-12-04T05:26:52.940Z,2.42
2022-12-04T05:27:55.116Z,2.55
2022-12-04T05:28:57.301Z,2.40
2022-12-04T05:29:59.805Z,2.39
2022-12-04T05:31:03.443Z,2.37
2022-12-04T05:32:05.965Z,2.27
2022-12-04T05:33:10.497Z,2.24
2022-12-04T05:34:12.699Z,2.12
2022-12-04T05:35:14.981Z,2.17
2022-12-04T05:36:17.173Z,2.15
2022-12-04T05:37:20.688Z,2.11
2022-12-04T05:38:22.939Z,2.00
2022-12-04T05:39:25.224Z,2.06
2022-12-04T05:40:27.440Z,2.11
2022-12-04T05:41:29.671Z,2.12
2022-12-04T05:42:31.878Z,2.13
2022-12-04T05:43:34.567Z,2.15
2022-12-04T05:44:36.760Z,2.19
2022-12-04T05:45:38.946Z,2.16
2022-12-04T05:46:41.184Z,2.15
2022-12-04T05:47:44.398Z,2.20
2022-12-04T05:48:46.624Z,2.21
2022-12-04T05:49:48.925Z,2.23
2022-12-04T05:50:51.099Z,2.31
2022-12-04T05:51:53.394Z,2.36
2022-12-04T05:52:55.608Z,2.24
2022-12-04T05:53:57.806Z,2.21
2022-12-04T05:55:00.054Z,2.17
2022-12-04T05:56:03.950Z,2.25
2022-12-04T05:57:06.433Z,2.34
2022-12-04T05:58:08.661Z,2.34
2022-12-04T05:59:10.901Z,2.37
2022-12-04T06:00:14.004Z,2.26
2022-12-04T06:01:19.612Z,2.30
2022-12-04T06:02:21.969Z,2.24
2022-12-04T06:03:24.331Z,2.18
2022-12-04T06:04:26.561Z,2.23
2022-12-04T06:05:28.752Z,2.25
2022-12-04T06:06:30.945Z,2.43
2022-12-04T06:07:33.218Z,2.53
2022-12-04T06:08:35.427Z,2.44
2022-12-04T06:09:37.952Z,2.41
2022-12-04T06:10:40.219Z,2.34
2022-12-04T06:11:42.903Z,2.24
2022-12-04T06:12:45.305Z,2.16
2022-12-04T06:13:47.570Z,2.18
2022-12-04T06:14:49.733Z,2.25
2022-12-04T06:15:51.943Z,2.16
2022-12-04T06:16:54.680Z,2.10
2022-12-04T06:17:56.899Z,2.08
2022-12-04T06:19:02.617Z,2.11
2022-12-04T06:20:11.112Z,2.20
2022-12-04T06:21:14.041Z,2.09
2022-12-04T06:22:16.419Z,2.10
2022-12-04T06:23:18.661Z,2.14
2022-12-04T06:24:23.771Z,2.27
2022-12-04T06:25:26.019Z,2.29
2022-12-04T06:26:28.505Z,2.33
2022-12-04T06:27:30.728Z,2.40
2022-12-04T06:28:33.284Z,2.34
2022-12-04T06:29:35.577Z,2.35
2022-12-04T06:30:37.887Z,2.35
2022-12-04T06:31:41.194Z,2.33
2022-12-04T06:32:43.461Z,2.38
2022-12-04T06:33:46.844Z,2.37
2022-12-04T06:34:53.445Z,2.35
2022-12-04T06:36:16.910Z,2.49
2022-12-04T06:37:20.324Z,2.42
2022-12-04T06:38:22.489Z,2.39
2022-12-04T06:39:24.704Z,2.47
2022-12-04T06:40:27.025Z,2.60
2022-12-04T06:41:29.648Z,2.67
2022-12-04T06:42:31.872Z,2.65
2022-12-04T06:43:34.237Z,2.51
2022-12-04T06:44:36.517Z,2.49
2022-12-04T06:45:38.735Z,2.44
2022-12-04T06:46:46.258Z,2.38
2022-12-04T06:47:49.238Z,2.40
2022-12-04T06:48:51.832Z,2.47
2022-12-04T06:49:54.661Z,2.50
2022-12-04T06:51:02.314Z,2.50
2022-12-04T06:52:04.532Z,2.46
2022-12-04T06:53:08.608Z,2.46
2022-12-04T06:54:11.633Z,2.30
2022-12-04T06:55:13.916Z,2.38
2022-12-04T06:56:18.724Z,2.34
2022-12-04T06:57:20.901Z,2.33
2022-12-04T06:58:23.379Z,2.37
2022-12-04T06:59:25.619Z,2.35
2022-12-04T07:00:27.949Z,2.31
2022-12-04T07:01:32.308Z,2.34
2022-12-04T07:02:34.653Z,2.39
2022-12-04T07:03:37.921Z,2.36
2022-12-04T07:04:40.158Z,2.46
2022-12-04T07:05:42.492Z,2.40
2022-12-04T07:06:44.651Z,2.53
2022-12-04T07:07:46.896Z,2.52
2022-12-04T07:08:52.533Z,2.57
2022-12-04T07:09:55.144Z,2.64
2022-12-04T07:10:59.312Z,2.70
2022-12-04T07:12:01.679Z,2.77
2022-12-04T07:13:04.725Z,2.80
2022-12-04T07:14:07.197Z,2.87
2022-12-04T07:15:10.039Z,2.61
2022-12-04T07:16:15.322Z,2.57
2022-12-04T07:17:17.677Z,2.51
2022-12-04T07:18:19.920Z,2.49
2022-12-04T07:19:22.096Z,2.34
2022-12-04T07:20:24.373Z,2.36
2022-12-04T07:21:28.970Z,2.37
2022-12-04T07:22:31.194Z,2.32
2022-12-04T07:23:33.897Z,2.28
2022-12-04T07:24:37.498Z,2.33
2022-12-04T07:25:41.144Z,2.31
2022-12-04T07:26:43.555Z,2.35
2022-12-04T07:27:46.018Z,2.59
2022-12-04T07:28:49.094Z,2.64
2022-12-04T07:29:52.937Z,2.67
2022-12-04T07:30:55.228Z,2.64
2022-12-04T07:31:57.848Z,2.68
2022-12-04T07:33:00.113Z,2.67
2022-12-04T07:34:02.298Z,2.71
2022-12-04T07:35:05.638Z,2.60
2022-12-04T07:36:10.334Z,2.57
2022-12-04T07:37:12.536Z,2.57
2022-12-04T07:38:14.717Z,2.60
2022-12-04T07:39:16.876Z,2.60
2022-12-04T07:40:19.096Z,2.56
2022-12-04T07:41:21.328Z,2.63
2022-12-04T07:42:24.465Z,2.60
2022-12-04T07:43:28.342Z,2.53
2022-12-04T07:44:31.913Z,2.70
2022-12-04T07:45:34.132Z,2.74
2022-12-04T07:46:36.361Z,2.63
2022-12-04T07:47:38.652Z,2.70
2022-12-04T07:48:41.379Z,2.82
2022-12-04T07:49:43.589Z,2.60
2022-12-04T07:50:45.774Z,2.57
2022-12-04T07:51:48.005Z,2.73
2022-12-04T07:52:50.175Z,2.85
2022-12-04T07:53:53.537Z,2.86
2022-12-04T07:54:55.754Z,2.84
2022-12-04T07:55:57.994Z,2.70
2022-12-04T07:57:00.224Z,2.71
2022-12-04T07:58:02.607Z,2.67
2022-12-04T07:59:04.998Z,2.72
2022-12-04T08:00:08.031Z,2.68
2022-12-04T08:01:16.756Z,2.64
2022-12-04T08:02:20.367Z,2.77
2022-12-04T08:03:22.655Z,2.75
2022-12-04T08:04:24.916Z,2.67
2022-12-04T08:05:27.140Z,2.54
2022-12-04T08:06:30.179Z,2.50
2022-12-04T08:07:32.838Z,2.50
2022-12-04T08:08:35.362Z,2.48
2022-12-04T08:09:37.796Z,2.52
2022-12-04T08:10:40.876Z,2.54
2022-12-04T08:11:43.085Z,2.59
2022-12-04T08:12:45.341Z,2.48
2022-12-04T08:13:47.797Z,2.50
2022-12-04T08:14:50.266Z,2.42
2022-12-04T08:15:52.569Z,2.56
2022-12-04T08:16:54.814Z,2.62
2022-12-04T08:17:57.025Z,2.53
2022-12-04T08:19:00.718Z,2.47
2022-12-04T08:20:03.932Z,2.44
2022-12-04T08:21:11.565Z,2.40
2022-12-04T08:22:13.770Z,2.42
2022-12-04T08:23:15.977Z,2.44
2022-12-04T08:24:18.219Z,2.45
2022-12-04T08:25:20.365Z,2.41
2022-12-04T08:26:24.488Z,2.38
2022-12-04T08:27:26.652Z,2.35
2022-12-04T08:28:29.132Z,2.35
2022-12-04T08:29:31.375Z,2.35
2022-12-04T08:30:34.692Z,2.36
2022-12-04T08:31:37.267Z,2.36
2022-12-04T08:32:39.597Z,2.38
2022-12-04T08:33:43.738Z,2.42
2022-12-04T08:34:47.838Z,2.42
2022-12-04T08:35:53.324Z,2.35
2022-12-04T08:36:55.540Z,2.46
2022-12-04T08:37:57.799Z,2.50
2022-12-04T08:39:00.146Z,2.50
2022-12-04T08:40:02.649Z,2.54
2022-12-04T08:41:07.609Z,2.68
2022-12-04T08:42:09.846Z,2.77
2022-12-04T08:43:12.928Z,2.78
2022-12-04T08:44:15.395Z,2.67
2022-12-04T08:45:17.648Z,2.50
2022-12-04T08:46:20.915Z,2.46
2022-12-04T08:47:23.164Z,2.40
2022-12-04T08:48:25.809Z,2.40
2022-12-04T08:49:28.130Z,2.35
2022-12-04T08:50:30.325Z,2.47
2022-12-04T08:51:34.745Z,2.55
2022-12-04T08:52:36.933Z,2.58
2022-12-04T08:53:39.108Z,2.63
2022-12-04T08:54:41.306Z,2.69
2022-12-04T08:55:43.824Z,2.54
2022-12-04T08:56:46.027Z,2.65
2022-12-04T08:57:50.141Z,2.54
2022-12-04T08:58:53.107Z,2.48
2022-12-04T08:59:55.603Z,2.37
2022-12-04T09:01:07.651Z,2.38
2022-12-04T09:02:11.398Z,2.45
2022-12-04T09:03:18.994Z,2.44
2022-12-04T09:04:21.367Z,2.42
2022-12-04T09:05:23.620Z,2.34
2022-12-04T09:06:26.047Z,2.38
2022-12-04T09:07:28.282Z,2.39
2022-12-04T09:08:31.403Z,2.41
2022-12-04T09:09:33.603Z,2.46
2022-12-04T09:10:37.046Z,2.41
2022-12-04T09:11:39.586Z,2.47
2022-12-04T09:12:41.834Z,2.51
2022-12-04T09:13:45.023Z,2.57
2022-12-04T09:14:47.246Z,2.58
2022-12-04T09:15:49.488Z,2.56
2022-12-04T09:16:53.260Z,2.70
2022-12-04T09:17:55.416Z,2.54
2022-12-04T09:18:57.771Z,2.51
2022-12-04T09:20:01.438Z,2.43
2022-12-04T09:21:06.754Z,2.40
2022-12-04T09:22:09.004Z,2.44
2022-12-04T09:23:11.186Z,2.45
2022-12-04T09:24:13.500Z,2.47
2022-12-04T09:25:15.830Z,2.56
2022-12-04T09:26:29.810Z,2.58
2022-12-04T09:27:36.323Z,2.54
2022-12-04T09:28:38.475Z,2.46
2022-12-04T09:29:40.624Z,2.44
2022-12-04T09:30:42.879Z,2.47
2022-12-04T09:31:45.196Z,2.50
2022-12-04T09:32:47.385Z,2.47
2022-12-04T09:33:49.705Z,2.53
2022-12-04T09:34:52.971Z,2.56
2022-12-04T09:35:55.343Z,2.54
2022-12-04T09:36:57.583Z,2.47
2022-12-04T09:38:00.486Z,2.44
2022-12-04T09:39:02.810Z,2.50
2022-12-04T09:40:06.988Z,2.45
2022-12-04T09:41:24.166Z,2.44
2022-12-04T09:42:43.361Z,2.50
2022-12-04T09:44:02.958Z,2.39
2022-12-04T09:45:36.927Z,2.38
2022-12-04T09:46:49.522Z,2.61
2022-12-04T09:48:00.997Z,2.59
2022-12-04T09:49:18.422Z,2.64
2022-12-04T09:50:45.028Z,2.67
2022-12-04T09:51:47.930Z,2.63
2022-12-04T09:53:15.555Z,2.66
2022-12-04T09:54:26.656Z,2.56
2022-12-04T09:55:35.636Z,2.57
2022-12-04T09:56:38.071Z,2.57
2022-12-04T09:57:47.309Z,2.67
2022-12-04T09:58:53.500Z,2.61
2022-12-04T09:59:56.659Z,2.58
2022-12-04T10:01:00.860Z,2.79
2022-12-04T10:02:28.942Z,2.72
2022-12-04T10:03:31.514Z,2.87
2022-12-04T10:04:33.772Z,2.86
2022-12-04T10:06:06.674Z,2.81
2022-12-04T10:07:16.056Z,2.87
2022-12-04T10:08:29.052Z,2.89
2022-12-04T10:09:42.255Z,2.90
2022-12-04T10:11:06.328Z,2.76
2022-12-04T10:12:39.831Z,2.68
2022-12-04T10:13:42.011Z,2.75
2022-12-04T10:15:21.653Z,2.70
2022-12-04T10:16:34.606Z,2.65
2022-12-04T10:18:06.116Z,2.68
2022-12-04T10:19:42.000Z,2.71
2022-12-04T10:20:50.876Z,2.55
2022-12-04T10:22:02.069Z,2.60
2022-12-04T10:23:24.308Z,2.70
2022-12-04T10:24:51.583Z,2.87
2022-12-04T10:25:55.084Z,2.73
2022-12-04T10:27:01.531Z,2.79
2022-12-04T10:28:26.394Z,2.74
2022-12-04T10:29:34.431Z,2.75
2022-12-04T10:30:37.545Z,2.86
2022-12-04T10:31:41.466Z,2.91
2022-12-04T10:32:48.184Z,2.98
2022-12-04T10:34:02.677Z,2.83
2022-12-04T10:35:30.963Z,2.72
2022-12-04T10:36:34.948Z,2.69
2022-12-04T10:37:41.982Z,2.73
2022-12-04T10:38:49.798Z,2.76
2022-12-04T10:40:02.492Z,2.78
2022-12-04T10:41:15.195Z,2.70
2022-12-04T10:42:38.449Z,2.70
2022-12-04T10:43:46.321Z,2.83
2022-12-04T10:44:48.513Z,2.88
2022-12-04T10:45:50.755Z,2.85
2022-12-04T10:46:58.523Z,2.87
2022-12-04T10:48:00.818Z,2.85
2022-12-04T10:49:12.250Z,2.86
2022-12-04T10:50:21.224Z,2.90
2022-12-04T10:51:24.058Z,2.90
2022-12-04T10:52:26.404Z,3.04
2022-12-04T10:53:32.342Z,2.98
2022-12-04T10:54:35.906Z,2.83
2022-12-04T10:55:39.749Z,2.84
2022-12-04T10:56:52.623Z,2.89
2022-12-04T10:57:54.875Z,2.86
2022-12-04T10:59:02.279Z,3.04
2022-12-04T11:00:24.248Z,3.27
2022-12-04T11:01:29.259Z,3.41
2022-12-04T11:02:35.398Z,3.64
2022-12-04T11:03:37.904Z,3.71
2022-12-04T11:04:41.896Z,3.74
2022-12-04T11:05:55.247Z,3.72
2022-12-04T11:07:20.575Z,3.25
2022-12-04T11:08:26.400Z,3.08
2022-12-04T11:09:29.409Z,3.10
2022-12-04T11:10:41.825Z,2.93
2022-12-04T11:11:44.114Z,2.99
2022-12-04T11:12:58.398Z,2.84
2022-12-04T11:14:06.838Z,2.99
2022-12-04T11:15:14.895Z,2.83
2022-12-04T11:16:48.294Z,2.75
2022-12-04T11:17:50.856Z,2.67
2022-12-04T11:18:52.935Z,2.62
2022-12-04T11:20:15.340Z,2.65
2022-12-04T11:21:24.189Z,2.60
2022-12-04T11:22:26.593Z,2.64
2022-12-04T11:23:45.562Z,2.71
2022-12-04T11:24:55.088Z,2.69
2022-12-04T11:26:05.240Z,2.71
2022-12-04T11:27:19.742Z,2.75
2022-12-04T11:28:41.068Z,2.98
2022-12-04T11:29:46.732Z,2.83
2022-12-04T11:30:55.065Z,2.73
2022-12-04T11:32:01.440Z,2.63
2022-12-04T11:33:18.213Z,2.71
2022-12-04T11:34:24.941Z,2.70
2022-12-04T11:35:29.758Z,2.68
2022-12-04T11:36:40.786Z,2.73
2022-12-04T11:37:53.528Z,2.75
2022-12-04T11:39:39.986Z,2.91
2022-12-04T11:40:52.034Z,2.90
2022-12-04T11:42:13.390Z,3.15
2022-12-04T11:43:17.948Z,3.38
2022-12-04T11:44:26.173Z,3.55
2022-12-04T11:45:28.626Z,3.71
2022-12-04T11:46:33.982Z,3.41
2022-12-04T11:47:36.276Z,3.23
2022-12-04T11:48:45.954Z,3.18
2022-12-04T11:50:01.738Z,3.09
2022-12-04T11:51:29.146Z,2.97
2022-12-04T11:52:50.069Z,2.95
2022-12-04T11:54:38.718Z,3.08
2022-12-04T11:55:52.919Z,3.05
2022-12-04T11:57:19.553Z,2.94
2022-12-04T11:58:38.444Z,2.96
2022-12-04T12:00:19.430Z,3.26
2022-12-04T12:01:24.642Z,3.29
2022-12-04T12:02:26.908Z,3.36
2022-12-04T12:03:41.395Z,3.23
2022-12-04T12:05:09.538Z,3.12
2022-12-04T12:06:29.556Z,2.91
2022-12-04T12:08:02.500Z,3.08
2022-12-04T12:09:42.670Z,2.98
2022-12-04T12:11:03.316Z,2.92
2022-12-04T12:12:28.610Z,2.88
2022-12-04T12:13:49.988Z,2.92
2022-12-04T12:15:22.945Z,3.04
2022-12-04T12:18:21.054Z,2.92
2022-12-04T12:19:36.525Z,3.03
2022-12-04T12:20:51.044Z,3.08
2022-12-04T12:22:30.471Z,3.30
2022-12-04T12:24:19.251Z,3.25
2022-12-04T12:25:50.384Z,3.23
2022-12-04T12:27:24.569Z,3.44
2022-12-04T12:28:33.905Z,3.74
2022-12-04T12:30:00.903Z,3.94
2022-12-04T12:31:30.559Z,3.95
2022-12-04T12:32:43.272Z,4.03
2022-12-04T12:33:55.926Z,4.16
2022-12-04T12:34:58.519Z,4.24
2022-12-04T12:36:08.960Z,4.35
2022-12-04T12:37:35.287Z,4.26
2022-12-04T12:39:01.474Z,4.42
2022-12-04T12:40:10.960Z,4.49
2022-12-04T12:41:29.913Z,4.59
2022-12-04T12:42:42.528Z,4.62
2022-12-04T12:43:53.254Z,4.51
2022-12-04T12:45:12.223Z,4.42
2022-12-04T12:46:33.332Z,3.99
2022-12-04T12:47:42.855Z,4.10
2022-12-04T12:49:09.850Z,4.24
2022-12-04T12:50:24.522Z,4.41
2022-12-04T12:51:47.656Z,4.45
2022-12-04T12:52:58.868Z,4.53
2022-12-04T12:54:39.533Z,4.62
2022-12-04T12:55:50.229Z,4.62
2022-12-04T12:57:01.657Z,4.63
2022-12-04T12:58:14.115Z,4.45
2022-12-04T12:59:27.225Z,4.39
2022-12-04T13:00:32.297Z,4.50
2022-12-04T13:01:40.291Z,4.48
2022-12-04T13:02:48.561Z,4.60
2022-12-04T13:04:03.417Z,4.54
2022-12-04T13:05:09.301Z,4.43
2022-12-04T13:06:19.025Z,4.31
2022-12-04T13:07:32.731Z,4.40
2022-12-04T13:08:59.563Z,4.45
2022-12-04T13:10:25.668Z,4.45
2022-12-04T13:11:29.409Z,4.35
2022-12-04T13:12:42.979Z,4.19
2022-12-04T13:13:45.091Z,4.27
2022-12-04T13:14:49.210Z,4.21
2022-12-04T13:16:06.502Z,4.32
2022-12-04T13:17:20.739Z,4.12
2022-12-04T13:18:34.222Z,3.96
2022-12-04T13:19:43.491Z,4.04
2022-12-04T13:20:56.341Z,4.05
2022-12-04T13:22:27.506Z,3.92
2022-12-04T13:23:54.496Z,4.14
2022-12-04T13:25:23.208Z,4.17
2022-12-04T13:27:03.597Z,4.28
2022-12-04T13:28:31.393Z,4.51
2022-12-04T13:30:01.201Z,4.60
2022-12-04T13:31:21.127Z,4.65
2022-12-04T13:32:38.517Z,4.61
2022-12-04T13:34:12.140Z,4.59
2022-12-04T13:35:26.253Z,4.55
2022-12-04T13:36:53.503Z,4.60
2022-12-04T13:38:13.217Z,4.63
2022-12-04T13:39:41.370Z,4.61
2022-12-04T13:40:48.019Z,4.61
2022-12-04T13:42:02.976Z,4.61
2022-12-04T13:43:44.042Z,4.68
2022-12-04T13:44:53.994Z,4.51
2022-12-04T13:46:00.244Z,4.53
2022-12-04T13:47:08.261Z,4.48
2022-12-04T13:48:10.668Z,4.53
2022-12-04T13:49:15.673Z,4.47
2022-12-04T13:50:17.776Z,4.33
2022-12-04T13:51:24.595Z,4.29
2022-12-04T13:52:40.767Z,4.34
2022-12-04T13:53:43.774Z,4.41
2022-12-04T13:55:00.378Z,4.34
2022-12-04T13:56:08.659Z,4.09
2022-12-04T13:57:12.533Z,4.25
2022-12-04T13:58:14.676Z,4.23
2022-12-04T13:59:30.458Z,4.29
2022-12-04T14:00:35.087Z,4.22
2022-12-04T14:01:44.650Z,4.24
2022-12-04T14:02:52.730Z,4.27
2022-12-04T14:03:57.291Z,4.25
2022-12-04T14:05:02.424Z,4.20
2022-12-04T14:06:20.123Z,4.34
2022-12-04T14:07:26.882Z,4.45
2022-12-04T14:08:36.405Z,4.38
2022-12-04T14:09:41.762Z,4.30
2022-12-04T14:10:45.330Z,4.31
2022-12-04T14:11:52.389Z,4.21
2022-12-04T14:13:01.443Z,4.27
2022-12-04T14:14:08.074Z,4.39
2022-12-04T14:15:22.868Z,4.45
2022-12-04T14:16:40.843Z,4.26
2022-12-04T14:17:47.142Z,4.12
2022-12-04T14:18:53.498Z,4.10
2022-12-04T14:20:02.934Z,4.31
2022-12-04T14:21:08.023Z,4.44
2022-12-04T14:22:27.226Z,4.53
2022-12-04T14:23:37.679Z,4.46
2022-12-04T14:24:40.197Z,4.26
2022-12-04T14:25:42.825Z,4.12
2022-12-04T14:27:10.842Z,3.76
2022-12-04T14:28:24.839Z,3.56
2022-12-04T14:29:52.014Z,3.29
2022-12-04T14:31:19.851Z,3.14
2022-12-04T14:32:25.919Z,3.12
2022-12-04T14:33:30.673Z,3.15
2022-12-04T14:34:35.475Z,3.18
2022-12-04T14:35:47.932Z,3.22
2022-12-04T14:36:51.962Z,3.27
2022-12-04T14:38:06.767Z,3.42
2022-12-04T14:39:25.950Z,3.61
2022-12-04T14:40:50.506Z,3.82
2022-12-04T14:41:56.873Z,4.01
2022-12-04T14:43:02.800Z,4.14
2022-12-04T14:44:05.444Z,4.21
2022-12-04T14:45:25.711Z,4.25
2022-12-04T14:46:37.572Z,4.30
2022-12-04T14:47:56.842Z,4.33
2022-12-04T14:49:16.987Z,4.34
2022-12-04T14:50:37.553Z,4.24
2022-12-04T14:51:57.636Z,4.11
2022-12-04T14:53:08.843Z,4.14
2022-12-04T14:54:29.154Z,4.18
2022-12-04T14:55:43.899Z,3.95
2022-12-04T14:57:31.451Z,4.01
2022-12-04T14:58:36.927Z,4.16
2022-12-04T14:59:48.326Z,4.07
2022-12-04T15:00:52.690Z,4.17
2022-12-04T15:01:55.606Z,4.07
2022-12-04T15:03:00.484Z,3.97
2022-12-04T15:04:15.231Z,4.04
2022-12-04T15:05:30.037Z,3.97
2022-12-04T15:06:33.596Z,3.79
2022-12-04T15:07:35.942Z,3.66
2022-12-04T15:08:49.383Z,3.78
2022-12-04T15:10:15.545Z,3.59
2022-12-04T15:11:39.681Z,3.65
2022-12-04T15:12:49.225Z,3.84
2022-12-04T15:13:51.547Z,3.87
2022-12-04T15:14:54.210Z,3.98
2022-12-04T15:15:57.383Z,3.93
2022-12-04T15:17:03.634Z,4.00
2022-12-04T15:18:14.946Z,4.17
2022-12-04T15:19:21.381Z,4.23
2022-12-04T15:20:23.976Z,4.21
2022-12-04T15:21:40.896Z,4.07
2022-12-04T15:22:44.010Z,4.00
2022-12-04T15:23:46.230Z,3.80
2022-12-04T15:24:48.678Z,3.71
2022-12-04T15:25:53.849Z,3.73
2022-12-04T15:26:56.507Z,3.93
2022-12-04T15:28:17.998Z,4.07
2022-12-04T15:29:25.748Z,4.15
2022-12-04T15:30:30.351Z,4.21
2022-12-04T15:31:43.340Z,4.12
2022-12-04T15:32:48.097Z,4.16
2022-12-04T15:33:56.083Z,4.11
2022-12-04T15:35:05.772Z,4.15